sensor_id;sensor_type;location;lat;lon;timestamp;P1;durP1;ratioP1;P2;durP2;ratioP2
3321;SDS011;1673;51.388;7.086;2022-11-04T00:01:50;3.92;;;2.20;;
3321;SDS011;1673;51.388;7.086;2022-11-04T00:04:23;3.65;;;2.10;;
3321;SDS011;1673;51.388;7.086;2022-11-04T00:06:54;4.57;;;2.67;;
3321;SDS011;1673;51.388;7.086;2022-11-04T00:09:25;3.72;;;2.05;;
3321;SDS011;1673;51.388;7.086;2022-11-04T00:11:56;3.73;;;2.30;;
3321;SDS011;1673;51.388;7.086;2022-11-04T00:14:39;4.00;;;2.10;;
3321;SDS011;1673;51.388;7.086;2022-11-04T00:17:09;4.15;;;2.08;;
3321;SDS011;1673;51.388;7.086;2022-11-04T00:19:50;4.20;;;2.00;;
3321;SDS011;1673;51.388;7.086;2022-11-04T00:22:32;5.32;;;1.90;;
3321;SDS011;1673;51.388;7.086;2022-11-04T00:25:15;4.30;;;1.88;;
3321;SDS011;1673;51.388;7.086;2022-11-04T00:28:00;3.92;;;1.90;;
3321;SDS011;1673;51.388;7.086;2022-11-04T00:30:43;4.38;;;1.70;;
3321;SDS011;1673;51.388;7.086;2022-11-04T00:33:13;4.30;;;1.70;;
3321;SDS011;1673;51.388;7.086;2022-11-04T00:35:56;3.47;;;1.63;;
3321;SDS011;1673;51.388;7.086;2022-11-04T00:38:25;4.30;;;2.10;;
3321;SDS011;1673;51.388;7.086;2022-11-04T00:40:55;5.20;;;2.08;;
3321;SDS011;1673;51.388;7.086;2022-11-04T00:43:24;3.22;;;1.70;;
3321;SDS011;1673;51.388;7.086;2022-11-04T00:45:54;4.53;;;2.13;;
3321;SDS011;1673;51.388;7.086;2022-11-04T00:48:24;4.73;;;1.77;;
3321;SDS011;1673;51.388;7.086;2022-11-04T00:50:56;4.93;;;1.90;;
3321;SDS011;1673;51.388;7.086;2022-11-04T00:53:25;3.63;;;2.13;;
3321;SDS011;1673;51.388;7.086;2022-11-04T00:55:57;4.85;;;2.10;;
3321;SDS011;1673;51.388;7.086;2022-11-04T00:58:27;4.78;;;2.25;;
3321;SDS011;1673;51.388;7.086;2022-11-04T01:00:57;4.88;;;2.40;;
3321;SDS011;1673;51.388;7.086;2022-11-04T01:03:27;6.60;;;2.50;;
3321;SDS011;1673;51.388;7.086;2022-11-04T01:05:59;3.92;;;2.28;;
3321;SDS011;1673;51.388;7.086;2022-11-04T01:08:28;4.00;;;2.40;;
3321;SDS011;1673;51.388;7.086;2022-11-04T01:11:00;4.30;;;2.65;;
3321;SDS011;1673;51.388;7.086;2022-11-04T01:13:29;5.47;;;2.80;;
3321;SDS011;1673;51.388;7.086;2022-11-04T01:16:00;4.32;;;2.65;;
3321;SDS011;1673;51.388;7.086;2022-11-04T01:18:31;5.53;;;2.70;;
3321;SDS011;1673;51.388;7.086;2022-11-04T01:21:03;5.70;;;3.00;;
3321;SDS011;1673;51.388;7.086;2022-11-04T01:23:34;8.77;;;3.10;;
3321;SDS011;1673;51.388;7.086;2022-11-04T01:26:04;6.20;;;3.00;;
3321;SDS011;1673;51.388;7.086;2022-11-04T01:28:34;4.90;;;2.90;;
3321;SDS011;1673;51.388;7.086;2022-11-04T01:31:04;5.97;;;3.17;;
3321;SDS011;1673;51.388;7.086;2022-11-04T01:33:34;5.57;;;3.08;;
3321;SDS011;1673;51.388;7.086;2022-11-04T01:36:11;5.85;;;3.03;;
3321;SDS011;1673;51.388;7.086;2022-11-04T01:38:40;6.67;;;3.40;;
3321;SDS011;1673;51.388;7.086;2022-11-04T01:41:14;7.40;;;3.20;;
3321;SDS011;1673;51.388;7.086;2022-11-04T01:43:48;8.73;;;3.40;;
3321;SDS011;1673;51.388;7.086;2022-11-04T01:46:26;9.50;;;3.40;;
3321;SDS011;1673;51.388;7.086;2022-11-04T01:49:05;8.35;;;3.83;;
3321;SDS011;1673;51.388;7.086;2022-11-04T01:51:43;6.90;;;4.00;;
3321;SDS011;1673;51.388;7.086;2022-11-04T01:54:14;7.50;;;4.00;;
3321;SDS011;1673;51.388;7.086;2022-11-04T01:56:44;8.73;;;4.30;;
3321;SDS011;1673;51.388;7.086;2022-11-04T01:59:17;8.82;;;4.32;;
3321;SDS011;1673;51.388;7.086;2022-11-04T02:01:49;7.55;;;4.30;;
3321;SDS011;1673;51.388;7.086;2022-11-04T02:04:19;7.68;;;4.15;;
3321;SDS011;1673;51.388;7.086;2022-11-04T02:06:58;7.60;;;4.15;;
3321;SDS011;1673;51.388;7.086;2022-11-04T02:09:31;7.78;;;4.30;;
3321;SDS011;1673;51.388;7.086;2022-11-04T02:12:02;7.25;;;3.90;;
3321;SDS011;1673;51.388;7.086;2022-11-04T02:14:44;9.73;;;4.40;;
3321;SDS011;1673;51.388;7.086;2022-11-04T02:17:19;7.22;;;4.18;;
3321;SDS011;1673;51.388;7.086;2022-11-04T02:19:59;9.60;;;3.50;;
3321;SDS011;1673;51.388;7.086;2022-11-04T02:22:57;8.57;;;3.78;;
3321;SDS011;1673;51.388;7.086;2022-11-04T02:25:55;6.17;;;3.60;;
3321;SDS011;1673;51.388;7.086;2022-11-04T02:28:47;9.43;;;3.45;;
3321;SDS011;1673;51.388;7.086;2022-11-04T02:31:32;10.23;;;3.47;;
3321;SDS011;1673;51.388;7.086;2022-11-04T02:34:08;8.47;;;3.60;;
3321;SDS011;1673;51.388;7.086;2022-11-04T02:36:41;10.30;;;3.60;;
3321;SDS011;1673;51.388;7.086;2022-11-04T02:39:18;9.48;;;3.60;;
3321;SDS011;1673;51.388;7.086;2022-11-04T02:41:52;5.90;;;3.00;;
3321;SDS011;1673;51.388;7.086;2022-11-04T02:44:28;6.33;;;3.80;;
3321;SDS011;1673;51.388;7.086;2022-11-04T02:47:01;6.35;;;3.20;;
3321;SDS011;1673;51.388;7.086;2022-11-04T02:49:33;6.10;;;2.85;;
3321;SDS011;1673;51.388;7.086;2022-11-04T02:52:09;7.00;;;3.10;;
3321;SDS011;1673;51.388;7.086;2022-11-04T02:54:41;7.95;;;3.00;;
3321;SDS011;1673;51.388;7.086;2022-11-04T02:57:14;6.20;;;3.23;;
3321;SDS011;1673;51.388;7.086;2022-11-04T02:59:49;11.03;;;3.20;;
3321;SDS011;1673;51.388;7.086;2022-11-04T03:02:24;7.90;;;3.05;;
3321;SDS011;1673;51.388;7.086;2022-11-04T03:04:57;10.50;;;2.78;;
3321;SDS011;1673;51.388;7.086;2022-11-04T03:07:29;6.63;;;3.05;;
3321;SDS011;1673;51.388;7.086;2022-11-04T03:10:00;7.35;;;2.80;;
3321;SDS011;1673;51.388;7.086;2022-11-04T03:12:34;10.70;;;3.10;;
3321;SDS011;1673;51.388;7.086;2022-11-04T03:15:10;8.80;;;3.10;;
3321;SDS011;1673;51.388;7.086;2022-11-04T03:17:43;6.40;;;2.60;;
3321;SDS011;1673;51.388;7.086;2022-11-04T03:20:17;10.00;;;2.95;;
3321;SDS011;1673;51.388;7.086;2022-11-04T03:22:50;5.95;;;2.70;;
3321;SDS011;1673;51.388;7.086;2022-11-04T03:25:25;7.05;;;2.80;;
3321;SDS011;1673;51.388;7.086;2022-11-04T03:28:03;15.10;;;4.18;;
3321;SDS011;1673;51.388;7.086;2022-11-04T03:30:40;5.97;;;2.80;;
3321;SDS011;1673;51.388;7.086;2022-11-04T03:33:12;10.30;;;3.00;;
3321;SDS011;1673;51.388;7.086;2022-11-04T03:35:46;16.85;;;3.08;;
3321;SDS011;1673;51.388;7.086;2022-11-04T03:38:16;8.13;;;3.07;;
3321;SDS011;1673;51.388;7.086;2022-11-04T03:40:45;9.27;;;2.80;;
3321;SDS011;1673;51.388;7.086;2022-11-04T03:43:16;9.63;;;3.27;;
3321;SDS011;1673;51.388;7.086;2022-11-04T03:45:50;10.90;;;3.00;;
3321;SDS011;1673;51.388;7.086;2022-11-04T03:48:20;13.63;;;3.00;;
3321;SDS011;1673;51.388;7.086;2022-11-04T03:50:50;14.60;;;2.80;;
3321;SDS011;1673;51.388;7.086;2022-11-04T03:53:20;8.70;;;2.70;;
3321;SDS011;1673;51.388;7.086;2022-11-04T03:56:18;7.57;;;2.45;;
3321;SDS011;1673;51.388;7.086;2022-11-04T03:59:17;6.87;;;2.70;;
3321;SDS011;1673;51.388;7.086;2022-11-04T04:01:56;13.50;;;2.75;;
3321;SDS011;1673;51.388;7.086;2022-11-04T04:04:29;8.90;;;2.72;;
3321;SDS011;1673;51.388;7.086;2022-11-04T04:07:01;10.52;;;2.50;;
3321;SDS011;1673;51.388;7.086;2022-11-04T04:09:36;6.78;;;2.20;;
3321;SDS011;1673;51.388;7.086;2022-11-04T04:12:09;8.93;;;3.03;;
3321;SDS011;1673;51.388;7.086;2022-11-04T04:14:42;9.43;;;3.08;;
3321;SDS011;1673;51.388;7.086;2022-11-04T04:17:18;9.73;;;2.70;;
3321;SDS011;1673;51.388;7.086;2022-11-04T04:19:51;11.40;;;2.72;;
3321;SDS011;1673;51.388;7.086;2022-11-04T04:22:25;9.00;;;2.60;;
3321;SDS011;1673;51.388;7.086;2022-11-04T04:24:57;7.90;;;3.05;;
3321;SDS011;1673;51.388;7.086;2022-11-04T04:27:41;13.68;;;2.90;;
3321;SDS011;1673;51.388;7.086;2022-11-04T04:30:13;8.30;;;2.60;;
3321;SDS011;1673;51.388;7.086;2022-11-04T04:32:46;6.50;;;2.40;;
3321;SDS011;1673;51.388;7.086;2022-11-04T04:35:18;14.32;;;3.35;;
3321;SDS011;1673;51.388;7.086;2022-11-04T04:38:18;14.15;;;3.20;;
3321;SDS011;1673;51.388;7.086;2022-11-04T04:41:04;11.25;;;2.70;;
3321;SDS011;1673;51.388;7.086;2022-11-04T04:43:49;14.23;;;2.72;;
3321;SDS011;1673;51.388;7.086;2022-11-04T04:46:31;10.57;;;2.60;;
3321;SDS011;1673;51.388;7.086;2022-11-04T04:49:07;9.25;;;2.42;;
3321;SDS011;1673;51.388;7.086;2022-11-04T04:51:38;9.63;;;2.60;;
3321;SDS011;1673;51.388;7.086;2022-11-04T04:54:09;11.55;;;3.00;;
3321;SDS011;1673;51.388;7.086;2022-11-04T04:56:39;12.63;;;2.55;;
3321;SDS011;1673;51.388;7.086;2022-11-04T04:59:08;12.03;;;2.97;;
3321;SDS011;1673;51.388;7.086;2022-11-04T05:01:38;11.60;;;2.88;;
3321;SDS011;1673;51.388;7.086;2022-11-04T05:04:10;18.80;;;3.40;;
3321;SDS011;1673;51.388;7.086;2022-11-04T05:06:40;12.27;;;2.90;;
3321;SDS011;1673;51.388;7.086;2022-11-04T05:09:10;11.30;;;2.83;;
3321;SDS011;1673;51.388;7.086;2022-11-04T05:11:39;16.37;;;3.50;;
3321;SDS011;1673;51.388;7.086;2022-11-04T05:14:09;12.30;;;3.33;;
3321;SDS011;1673;51.388;7.086;2022-11-04T05:16:39;10.02;;;3.13;;
3321;SDS011;1673;51.388;7.086;2022-11-04T05:19:11;10.45;;;3.00;;
3321;SDS011;1673;51.388;7.086;2022-11-04T05:21:40;12.98;;;3.00;;
3321;SDS011;1673;51.388;7.086;2022-11-04T05:24:10;10.50;;;2.50;;
3321;SDS011;1673;51.388;7.086;2022-11-04T05:26:41;11.13;;;3.07;;
3321;SDS011;1673;51.388;7.086;2022-11-04T05:29:10;10.57;;;2.95;;
3321;SDS011;1673;51.388;7.086;2022-11-04T05:32:00;8.90;;;2.40;;
3321;SDS011;1673;51.388;7.086;2022-11-04T05:34:32;7.45;;;2.20;;
3321;SDS011;1673;51.388;7.086;2022-11-04T05:37:02;5.50;;;2.40;;
3321;SDS011;1673;51.388;7.086;2022-11-04T05:39:31;10.77;;;2.60;;
3321;SDS011;1673;51.388;7.086;2022-11-04T05:42:01;9.27;;;2.33;;
3321;SDS011;1673;51.388;7.086;2022-11-04T05:44:30;13.68;;;2.85;;
3321;SDS011;1673;51.388;7.086;2022-11-04T05:47:00;13.90;;;3.20;;
3321;SDS011;1673;51.388;7.086;2022-11-04T05:49:32;18.27;;;3.22;;
3321;SDS011;1673;51.388;7.086;2022-11-04T05:52:02;8.02;;;2.40;;
3321;SDS011;1673;51.388;7.086;2022-11-04T05:54:32;9.33;;;2.90;;
3321;SDS011;1673;51.388;7.086;2022-11-04T05:57:01;9.02;;;2.50;;
3321;SDS011;1673;51.388;7.086;2022-11-04T05:59:31;15.50;;;2.50;;
3321;SDS011;1673;51.388;7.086;2022-11-04T06:02:01;10.98;;;2.50;;
3321;SDS011;1673;51.388;7.086;2022-11-04T06:04:34;12.48;;;3.17;;
3321;SDS011;1673;51.388;7.086;2022-11-04T06:07:03;9.43;;;2.38;;
3321;SDS011;1673;51.388;7.086;2022-11-04T06:09:33;12.07;;;2.50;;
3321;SDS011;1673;51.388;7.086;2022-11-04T06:12:10;14.10;;;2.40;;
3321;SDS011;1673;51.388;7.086;2022-11-04T06:14:41;8.45;;;2.47;;
3321;SDS011;1673;51.388;7.086;2022-11-04T06:17:12;8.10;;;2.10;;
3321;SDS011;1673;51.388;7.086;2022-11-04T06:19:46;9.10;;;2.63;;
3321;SDS011;1673;51.388;7.086;2022-11-04T06:22:17;10.32;;;2.35;;
3321;SDS011;1673;51.388;7.086;2022-11-04T06:24:47;7.88;;;2.10;;
3321;SDS011;1673;51.388;7.086;2022-11-04T06:27:17;10.85;;;2.47;;
3321;SDS011;1673;51.388;7.086;2022-11-04T06:29:47;11.40;;;2.70;;
3321;SDS011;1673;51.388;7.086;2022-11-04T06:32:18;7.63;;;3.08;;
3321;SDS011;1673;51.388;7.086;2022-11-04T06:34:50;10.30;;;2.83;;
3321;SDS011;1673;51.388;7.086;2022-11-04T06:37:20;10.57;;;2.60;;
3321;SDS011;1673;51.388;7.086;2022-11-04T06:39:49;12.80;;;2.72;;
3321;SDS011;1673;51.388;7.086;2022-11-04T06:42:19;11.88;;;2.58;;
3321;SDS011;1673;51.388;7.086;2022-11-04T06:44:51;8.02;;;2.45;;
3321;SDS011;1673;51.388;7.086;2022-11-04T06:47:20;10.75;;;2.70;;
3321;SDS011;1673;51.388;7.086;2022-11-04T06:49:53;10.40;;;2.50;;
3321;SDS011;1673;51.388;7.086;2022-11-04T06:52:22;8.85;;;2.72;;
3321;SDS011;1673;51.388;7.086;2022-11-04T06:54:52;8.80;;;2.60;;
3321;SDS011;1673;51.388;7.086;2022-11-04T06:57:21;11.43;;;2.70;;
3321;SDS011;1673;51.388;7.086;2022-11-04T06:59:51;8.80;;;2.20;;
3321;SDS011;1673;51.388;7.086;2022-11-04T07:02:21;12.18;;;2.47;;
3321;SDS011;1673;51.388;7.086;2022-11-04T07:04:53;7.28;;;2.53;;
3321;SDS011;1673;51.388;7.086;2022-11-04T07:07:42;8.10;;;2.80;;
3321;SDS011;1673;51.388;7.086;2022-11-04T07:10:12;10.85;;;2.80;;
3321;SDS011;1673;51.388;7.086;2022-11-04T07:12:42;9.18;;;2.50;;
3321;SDS011;1673;51.388;7.086;2022-11-04T07:15:12;18.83;;;3.28;;
3321;SDS011;1673;51.388;7.086;2022-11-04T07:17:41;12.98;;;2.63;;
3321;SDS011;1673;51.388;7.086;2022-11-04T07:20:13;12.00;;;2.60;;
3321;SDS011;1673;51.388;7.086;2022-11-04T07:22:43;9.18;;;3.00;;
3321;SDS011;1673;51.388;7.086;2022-11-04T07:25:13;8.77;;;3.25;;
3321;SDS011;1673;51.388;7.086;2022-11-04T07:27:42;10.23;;;2.80;;
3321;SDS011;1673;51.388;7.086;2022-11-04T07:30:12;8.88;;;3.05;;
3321;SDS011;1673;51.388;7.086;2022-11-04T07:32:42;9.88;;;2.50;;
3321;SDS011;1673;51.388;7.086;2022-11-04T07:35:14;14.15;;;2.90;;
3321;SDS011;1673;51.388;7.086;2022-11-04T07:37:44;7.80;;;2.43;;
3321;SDS011;1673;51.388;7.086;2022-11-04T07:40:14;15.90;;;3.25;;
3321;SDS011;1673;51.388;7.086;2022-11-04T07:42:43;18.42;;;3.20;;
3321;SDS011;1673;51.388;7.086;2022-11-04T07:45:16;9.13;;;3.05;;
3321;SDS011;1673;51.388;7.086;2022-11-04T07:47:46;7.40;;;2.90;;
3321;SDS011;1673;51.388;7.086;2022-11-04T07:50:18;7.75;;;2.60;;
3321;SDS011;1673;51.388;7.086;2022-11-04T07:52:48;10.43;;;3.20;;
3321;SDS011;1673;51.388;7.086;2022-11-04T07:55:18;15.93;;;3.13;;
3321;SDS011;1673;51.388;7.086;2022-11-04T07:57:48;12.25;;;2.83;;
3321;SDS011;1673;51.388;7.086;2022-11-04T08:00:18;8.30;;;2.90;;
3321;SDS011;1673;51.388;7.086;2022-11-04T08:02:48;12.83;;;3.30;;
3321;SDS011;1673;51.388;7.086;2022-11-04T08:05:20;10.18;;;2.88;;
3321;SDS011;1673;51.388;7.086;2022-11-04T08:07:50;14.80;;;2.63;;
3321;SDS011;1673;51.388;7.086;2022-11-04T08:10:19;9.70;;;2.92;;
3321;SDS011;1673;51.388;7.086;2022-11-04T08:12:49;8.55;;;2.92;;
3321;SDS011;1673;51.388;7.086;2022-11-04T08:15:19;8.40;;;2.40;;
3321;SDS011;1673;51.388;7.086;2022-11-04T08:17:49;7.45;;;2.80;;
3321;SDS011;1673;51.388;7.086;2022-11-04T08:20:21;12.77;;;2.67;;
3321;SDS011;1673;51.388;7.086;2022-11-04T08:22:50;11.23;;;3.30;;
3321;SDS011;1673;51.388;7.086;2022-11-04T08:25:20;11.15;;;2.90;;
3321;SDS011;1673;51.388;7.086;2022-11-04T08:27:50;10.82;;;2.95;;
3321;SDS011;1673;51.388;7.086;2022-11-04T08:30:26;10.00;;;3.00;;
3321;SDS011;1673;51.388;7.086;2022-11-04T08:32:55;11.15;;;3.00;;
3321;SDS011;1673;51.388;7.086;2022-11-04T08:35:27;11.93;;;3.13;;
3321;SDS011;1673;51.388;7.086;2022-11-04T08:38:02;9.18;;;3.10;;
3321;SDS011;1673;51.388;7.086;2022-11-04T08:40:32;10.10;;;3.50;;
3321;SDS011;1673;51.388;7.086;2022-11-04T08:43:01;12.50;;;3.60;;
3321;SDS011;1673;51.388;7.086;2022-11-04T08:45:31;12.27;;;3.10;;
3321;SDS011;1673;51.388;7.086;2022-11-04T08:48:01;7.70;;;2.80;;
3321;SDS011;1673;51.388;7.086;2022-11-04T08:50:34;12.20;;;2.85;;
3321;SDS011;1673;51.388;7.086;2022-11-04T08:53:04;8.73;;;2.50;;
3321;SDS011;1673;51.388;7.086;2022-11-04T08:55:34;11.40;;;3.10;;
3321;SDS011;1673;51.388;7.086;2022-11-04T08:58:03;7.55;;;2.60;;
3321;SDS011;1673;51.388;7.086;2022-11-04T09:00:34;6.65;;;2.85;;
3321;SDS011;1673;51.388;7.086;2022-11-04T09:03:04;7.97;;;2.67;;
3321;SDS011;1673;51.388;7.086;2022-11-04T09:05:38;10.95;;;2.60;;
3321;SDS011;1673;51.388;7.086;2022-11-04T09:08:10;10.23;;;2.60;;
3321;SDS011;1673;51.388;7.086;2022-11-04T09:10:40;6.90;;;2.38;;
3321;SDS011;1673;51.388;7.086;2022-11-04T09:13:11;10.43;;;3.17;;
3321;SDS011;1673;51.388;7.086;2022-11-04T09:15:41;8.30;;;2.30;;
3321;SDS011;1673;51.388;7.086;2022-11-04T09:18:11;8.52;;;2.55;;
3321;SDS011;1673;51.388;7.086;2022-11-04T09:20:43;6.90;;;2.20;;
3321;SDS011;1673;51.388;7.086;2022-11-04T09:23:12;9.45;;;2.20;;
3321;SDS011;1673;51.388;7.086;2022-11-04T09:25:42;10.00;;;2.90;;
3321;SDS011;1673;51.388;7.086;2022-11-04T09:28:12;7.20;;;2.20;;
3321;SDS011;1673;51.388;7.086;2022-11-04T09:30:41;10.40;;;2.20;;
3321;SDS011;1673;51.388;7.086;2022-11-04T09:33:11;6.00;;;2.15;;
3321;SDS011;1673;51.388;7.086;2022-11-04T09:35:43;6.32;;;1.80;;
3321;SDS011;1673;51.388;7.086;2022-11-04T09:38:23;8.80;;;2.60;;
3321;SDS011;1673;51.388;7.086;2022-11-04T09:40:52;13.55;;;2.40;;
3321;SDS011;1673;51.388;7.086;2022-11-04T09:43:25;11.82;;;2.40;;
3321;SDS011;1673;51.388;7.086;2022-11-04T09:46:01;7.77;;;2.20;;
3321;SDS011;1673;51.388;7.086;2022-11-04T09:48:32;10.13;;;2.25;;
3321;SDS011;1673;51.388;7.086;2022-11-04T09:51:06;8.85;;;2.40;;
3321;SDS011;1673;51.388;7.086;2022-11-04T09:53:56;9.90;;;2.50;;
3321;SDS011;1673;51.388;7.086;2022-11-04T09:56:29;5.97;;;2.30;;
3321;SDS011;1673;51.388;7.086;2022-11-04T09:59:01;11.63;;;2.50;;
3321;SDS011;1673;51.388;7.086;2022-11-04T10:01:32;9.95;;;2.40;;
3321;SDS011;1673;51.388;7.086;2022-11-04T10:04:07;7.63;;;2.00;;
3321;SDS011;1673;51.388;7.086;2022-11-04T10:06:52;8.88;;;2.10;;
3321;SDS011;1673;51.388;7.086;2022-11-04T10:09:33;10.43;;;3.22;;
3321;SDS011;1673;51.388;7.086;2022-11-04T10:12:15;7.75;;;2.20;;
3321;SDS011;1673;51.388;7.086;2022-11-04T10:14:53;7.90;;;2.65;;
3321;SDS011;1673;51.388;7.086;2022-11-04T10:17:42;14.20;;;2.70;;
3321;SDS011;1673;51.388;7.086;2022-11-04T10:20:26;7.80;;;2.37;;
3321;SDS011;1673;51.388;7.086;2022-11-04T10:23:13;8.10;;;2.30;;
3321;SDS011;1673;51.388;7.086;2022-11-04T10:25:50;11.18;;;2.42;;
3321;SDS011;1673;51.388;7.086;2022-11-04T10:28:26;13.98;;;2.30;;
3321;SDS011;1673;51.388;7.086;2022-11-04T10:31:01;8.27;;;2.25;;
3321;SDS011;1673;51.388;7.086;2022-11-04T10:33:32;8.25;;;2.60;;
3321;SDS011;1673;51.388;7.086;2022-11-04T10:36:05;9.93;;;2.28;;
3321;SDS011;1673;51.388;7.086;2022-11-04T10:38:39;9.55;;;3.10;;
3321;SDS011;1673;51.388;7.086;2022-11-04T10:41:19;13.87;;;2.80;;
3321;SDS011;1673;51.388;7.086;2022-11-04T10:43:54;11.57;;;3.40;;
3321;SDS011;1673;51.388;7.086;2022-11-04T10:46:29;11.00;;;2.47;;
3321;SDS011;1673;51.388;7.086;2022-11-04T10:49:10;9.65;;;2.50;;
3321;SDS011;1673;51.388;7.086;2022-11-04T10:51:58;8.75;;;2.28;;
3321;SDS011;1673;51.388;7.086;2022-11-04T10:54:32;6.10;;;2.30;;
3321;SDS011;1673;51.388;7.086;2022-11-04T10:57:05;12.07;;;2.30;;
3321;SDS011;1673;51.388;7.086;2022-11-04T10:59:36;7.18;;;2.50;;
3321;SDS011;1673;51.388;7.086;2022-11-04T11:02:15;11.20;;;2.90;;
3321;SDS011;1673;51.388;7.086;2022-11-04T11:04:45;9.90;;;2.40;;
3321;SDS011;1673;51.388;7.086;2022-11-04T11:07:15;7.80;;;2.50;;
3321;SDS011;1673;51.388;7.086;2022-11-04T11:09:52;11.32;;;2.30;;
3321;SDS011;1673;51.388;7.086;2022-11-04T11:12:25;7.20;;;2.10;;
3321;SDS011;1673;51.388;7.086;2022-11-04T11:15:18;9.15;;;2.00;;
3321;SDS011;1673;51.388;7.086;2022-11-04T11:17:56;8.13;;;2.10;;
3321;SDS011;1673;51.388;7.086;2022-11-04T11:20:28;10.57;;;2.70;;
3321;SDS011;1673;51.388;7.086;2022-11-04T11:23:03;5.97;;;2.20;;
3321;SDS011;1673;51.388;7.086;2022-11-04T11:25:38;7.93;;;2.25;;
3321;SDS011;1673;51.388;7.086;2022-11-04T11:28:11;8.73;;;2.17;;
3321;SDS011;1673;51.388;7.086;2022-11-04T11:30:53;11.60;;;2.40;;
3321;SDS011;1673;51.388;7.086;2022-11-04T11:33:25;10.02;;;2.35;;
3321;SDS011;1673;51.388;7.086;2022-11-04T11:35:57;7.60;;;2.30;;
3321;SDS011;1673;51.388;7.086;2022-11-04T11:38:29;7.68;;;2.60;;
3321;SDS011;1673;51.388;7.086;2022-11-04T11:41:06;7.22;;;2.45;;
3321;SDS011;1673;51.388;7.086;2022-11-04T11:43:51;9.05;;;2.40;;
3321;SDS011;1673;51.388;7.086;2022-11-04T11:46:22;7.60;;;2.05;;
3321;SDS011;1673;51.388;7.086;2022-11-04T11:48:53;9.65;;;2.22;;
3321;SDS011;1673;51.388;7.086;2022-11-04T11:51:27;8.50;;;2.40;;
3321;SDS011;1673;51.388;7.086;2022-11-04T11:54:02;7.93;;;2.40;;
3321;SDS011;1673;51.388;7.086;2022-11-04T11:56:48;7.50;;;2.40;;
3321;SDS011;1673;51.388;7.086;2022-11-04T11:59:41;12.98;;;2.17;;
3321;SDS011;1673;51.388;7.086;2022-11-04T12:02:40;10.63;;;2.10;;
3321;SDS011;1673;51.388;7.086;2022-11-04T12:05:16;8.30;;;2.30;;
3321;SDS011;1673;51.388;7.086;2022-11-04T12:08:14;8.23;;;2.20;;
3321;SDS011;1673;51.388;7.086;2022-11-04T12:11:14;5.35;;;2.08;;
3321;SDS011;1673;51.388;7.086;2022-11-04T12:13:51;10.25;;;2.10;;
3321;SDS011;1673;51.388;7.086;2022-11-04T12:16:25;13.95;;;2.58;;
3321;SDS011;1673;51.388;7.086;2022-11-04T12:19:03;9.40;;;2.38;;
3321;SDS011;1673;51.388;7.086;2022-11-04T12:21:42;7.85;;;2.33;;
3321;SDS011;1673;51.388;7.086;2022-11-04T12:24:19;10.77;;;2.50;;
3321;SDS011;1673;51.388;7.086;2022-11-04T12:26:58;8.25;;;1.90;;
3321;SDS011;1673;51.388;7.086;2022-11-04T12:29:42;9.65;;;2.05;;
3321;SDS011;1673;51.388;7.086;2022-11-04T12:32:23;8.82;;;2.30;;
3321;SDS011;1673;51.388;7.086;2022-11-04T12:35:04;6.15;;;2.10;;
3321;SDS011;1673;51.388;7.086;2022-11-04T12:37:47;9.18;;;2.20;;
3321;SDS011;1673;51.388;7.086;2022-11-04T12:40:26;8.35;;;2.50;;
3321;SDS011;1673;51.388;7.086;2022-11-04T12:43:01;8.37;;;2.20;;
3321;SDS011;1673;51.388;7.086;2022-11-04T12:45:50;11.88;;;3.10;;
3321;SDS011;1673;51.388;7.086;2022-11-04T12:48:31;9.40;;;2.60;;
3321;SDS011;1673;51.388;7.086;2022-11-04T12:51:10;9.18;;;2.45;;
3321;SDS011;1673;51.388;7.086;2022-11-04T12:53:47;13.85;;;2.70;;
3321;SDS011;1673;51.388;7.086;2022-11-04T12:56:25;10.30;;;2.70;;
3321;SDS011;1673;51.388;7.086;2022-11-04T12:59:15;9.80;;;3.05;;
3321;SDS011;1673;51.388;7.086;2022-11-04T13:01:57;9.65;;;2.70;;
3321;SDS011;1673;51.388;7.086;2022-11-04T13:04:31;9.90;;;3.00;;
3321;SDS011;1673;51.388;7.086;2022-11-04T13:07:04;10.15;;;2.67;;
3321;SDS011;1673;51.388;7.086;2022-11-04T13:09:37;12.82;;;3.00;;
3321;SDS011;1673;51.388;7.086;2022-11-04T13:12:10;8.38;;;2.50;;
3321;SDS011;1673;51.388;7.086;2022-11-04T13:14:43;11.00;;;3.13;;
3321;SDS011;1673;51.388;7.086;2022-11-04T13:17:19;9.68;;;2.88;;
3321;SDS011;1673;51.388;7.086;2022-11-04T13:19:51;8.40;;;2.40;;
3321;SDS011;1673;51.388;7.086;2022-11-04T13:22:23;12.68;;;2.80;;
3321;SDS011;1673;51.388;7.086;2022-11-04T13:24:56;13.15;;;3.13;;
3321;SDS011;1673;51.388;7.086;2022-11-04T13:27:30;9.52;;;2.60;;
3321;SDS011;1673;51.388;7.086;2022-11-04T13:30:03;8.75;;;2.95;;
3321;SDS011;1673;51.388;7.086;2022-11-04T13:32:39;11.07;;;2.30;;
3321;SDS011;1673;51.388;7.086;2022-11-04T13:35:11;9.60;;;3.10;;
3321;SDS011;1673;51.388;7.086;2022-11-04T13:37:48;11.50;;;3.40;;
3321;SDS011;1673;51.388;7.086;2022-11-04T13:40:23;12.00;;;3.10;;
3321;SDS011;1673;51.388;7.086;2022-11-04T13:43:02;11.98;;;2.80;;
3321;SDS011;1673;51.388;7.086;2022-11-04T13:45:49;6.13;;;2.25;;
3321;SDS011;1673;51.388;7.086;2022-11-04T13:48:24;10.67;;;2.47;;
3321;SDS011;1673;51.388;7.086;2022-11-04T13:50:56;8.10;;;2.60;;
3321;SDS011;1673;51.388;7.086;2022-11-04T13:53:44;14.75;;;3.15;;
3321;SDS011;1673;51.388;7.086;2022-11-04T13:56:27;9.63;;;2.80;;
3321;SDS011;1673;51.388;7.086;2022-11-04T13:59:02;8.93;;;2.67;;
3321;SDS011;1673;51.388;7.086;2022-11-04T14:01:35;21.88;;;3.40;;
3321;SDS011;1673;51.388;7.086;2022-11-04T14:04:17;10.88;;;2.80;;
3321;SDS011;1673;51.388;7.086;2022-11-04T14:06:55;9.52;;;2.75;;
3321;SDS011;1673;51.388;7.086;2022-11-04T14:09:33;9.80;;;2.50;;
3321;SDS011;1673;51.388;7.086;2022-11-04T14:14:54;12.30;;;3.17;;
3321;SDS011;1673;51.388;7.086;2022-11-04T14:20:31;9.13;;;3.20;;
3321;SDS011;1673;51.388;7.086;2022-11-04T14:23:03;10.32;;;3.67;;
3321;SDS011;1673;51.388;7.086;2022-11-04T14:25:35;13.83;;;3.50;;
3321;SDS011;1673;51.388;7.086;2022-11-04T14:28:16;10.38;;;3.60;;
3321;SDS011;1673;51.388;7.086;2022-11-04T14:30:48;7.63;;;3.40;;
3321;SDS011;1673;51.388;7.086;2022-11-04T14:39:05;12.35;;;2.90;;
3321;SDS011;1673;51.388;7.086;2022-11-04T14:41:55;8.80;;;3.30;;
3321;SDS011;1673;51.388;7.086;2022-11-04T14:44:34;9.97;;;3.63;;
3321;SDS011;1673;51.388;7.086;2022-11-04T14:47:15;10.88;;;4.50;;
3321;SDS011;1673;51.388;7.086;2022-11-04T14:49:47;17.67;;;5.70;;
3321;SDS011;1673;51.388;7.086;2022-11-04T14:52:25;12.73;;;5.25;;
3321;SDS011;1673;51.388;7.086;2022-11-04T14:54:56;18.15;;;6.30;;
3321;SDS011;1673;51.388;7.086;2022-11-04T14:57:34;20.13;;;7.00;;
3321;SDS011;1673;51.388;7.086;2022-11-04T15:02:58;17.65;;;7.90;;
3321;SDS011;1673;51.388;7.086;2022-11-04T15:05:30;14.80;;;7.78;;
3321;SDS011;1673;51.388;7.086;2022-11-04T15:08:12;18.75;;;8.13;;
3321;SDS011;1673;51.388;7.086;2022-11-04T15:10:56;17.75;;;8.10;;
3321;SDS011;1673;51.388;7.086;2022-11-04T15:13:26;21.80;;;9.05;;
3321;SDS011;1673;51.388;7.086;2022-11-04T15:15:56;20.35;;;8.13;;
3321;SDS011;1673;51.388;7.086;2022-11-04T15:18:27;20.15;;;7.65;;
3321;SDS011;1673;51.388;7.086;2022-11-04T15:20:57;16.17;;;7.78;;
3321;SDS011;1673;51.388;7.086;2022-11-04T15:23:32;19.92;;;8.40;;
3321;SDS011;1673;51.388;7.086;2022-11-04T15:26:03;15.68;;;8.70;;
3321;SDS011;1673;51.388;7.086;2022-11-04T15:28:34;17.50;;;9.10;;
3321;SDS011;1673;51.388;7.086;2022-11-04T15:31:12;17.48;;;8.95;;
3321;SDS011;1673;51.388;7.086;2022-11-04T15:33:47;20.58;;;9.30;;
3321;SDS011;1673;51.388;7.086;2022-11-04T15:36:18;22.33;;;8.98;;
3321;SDS011;1673;51.388;7.086;2022-11-04T15:38:54;17.37;;;7.90;;
3321;SDS011;1673;51.388;7.086;2022-11-04T15:41:26;18.00;;;6.85;;
3321;SDS011;1673;51.388;7.086;2022-11-04T15:44:14;15.07;;;5.25;;
3321;SDS011;1673;51.388;7.086;2022-11-04T15:46:46;14.93;;;4.68;;
3321;SDS011;1673;51.388;7.086;2022-11-04T15:49:19;13.30;;;4.68;;
3321;SDS011;1673;51.388;7.086;2022-11-04T15:51:51;11.85;;;5.30;;
3321;SDS011;1673;51.388;7.086;2022-11-04T15:54:27;12.27;;;4.53;;
3321;SDS011;1673;51.388;7.086;2022-11-04T15:56:58;10.40;;;4.50;;
3321;SDS011;1673;51.388;7.086;2022-11-04T15:59:30;16.00;;;4.70;;
3321;SDS011;1673;51.388;7.086;2022-11-04T16:02:01;14.70;;;4.88;;
3321;SDS011;1673;51.388;7.086;2022-11-04T16:04:32;12.77;;;4.30;;
3321;SDS011;1673;51.388;7.086;2022-11-04T16:07:03;13.50;;;4.50;;
3321;SDS011;1673;51.388;7.086;2022-11-04T16:09:46;20.48;;;5.38;;